sensor_id;sensor_type;location;lat;lon;timestamp;pressure;altitude;pressure_sealevel;temperature;humidity
45894;BME280;31603;51.148;16.932;2022-07-06T00:00:55;100380.34;;;16.33;100.00
45894;BME280;31603;51.148;16.932;2022-07-06T00:03:21;100396.28;;;16.26;100.00
45894;BME280;31603;51.148;16.932;2022-07-06T00:05:48;100387.97;;;16.15;100.00
45894;BME280;31603;51.148;16.932;2022-07-06T00:08:14;100391.50;;;16.10;100.00
45894;BME280;31603;51.148;16.932;2022-07-06T00:10:41;100394.91;;;16.64;100.00
45894;BME280;31603;51.148;16.932;2022-07-06T00:13:09;100391.78;;;17.01;100.00
45894;BME280;31603;51.148;16.932;2022-07-06T00:15:35;100374.19;;;16.43;100.00
45894;BME280;31603;51.148;16.932;2022-07-06T00:18:02;100392.38;;;16.51;100.00
45894;BME280;31603;51.148;16.932;2022-07-06T00:20:28;100388.59;;;16.69;100.00
45894;BME280;31603;51.148;16.932;2022-07-06T00:22:56;100323.00;;;15.75;100.00
45894;BME280;31603;51.148;16.932;2022-07-06T00:25:23;100388.94;;;16.32;100.00
45894;BME280;31603;51.148;16.932;2022-07-06T00:27:49;100409.34;;;15.91;100.00
45894;BME280;31603;51.148;16.932;2022-07-06T00:30:17;100402.34;;;15.76;100.00
45894;BME280;31603;51.148;16.932;2022-07-06T00:32:44;100395.34;;;15.85;100.00
45894;BME280;31603;51.148;16.932;2022-07-06T00:35:10;100366.50;;;15.63;100.00
45894;BME280;31603;51.148;16.932;2022-07-06T00:37:37;100356.28;;;15.99;100.00
45894;BME280;31603;51.148;16.932;2022-07-06T00:40:04;100287.31;;;15.67;100.00
45894;BME280;31603;51.148;16.932;2022-07-06T00:42:39;100369.28;;;16.10;100.00
45894;BME280;31603;51.148;16.932;2022-07-06T00:45:06;100368.56;;;16.15;100.00
45894;BME280;31603;51.148;16.932;2022-07-06T00:47:34;100380.31;;;16.57;100.00
45894;BME280;31603;51.148;16.932;2022-07-06T00:50:02;100376.00;;;16.37;100.00
45894;BME280;31603;51.148;16.932;2022-07-06T00:52:45;100389.31;;;15.88;100.00
45894;BME280;31603;51.148;16.932;2022-07-06T00:55:14;100362.66;;;15.99;100.00
45894;BME280;31603;51.148;16.932;2022-07-06T00:57:41;100351.59;;;15.87;100.00
45894;BME280;31603;51.148;16.932;2022-07-06T01:00:11;100390.91;;;15.84;100.00
45894;BME280;31603;51.148;16.932;2022-07-06T01:02:39;100385.69;;;16.11;100.00
45894;BME280;31603;51.148;16.932;2022-07-06T01:05:08;100355.91;;;15.95;100.00
45894;BME280;31603;51.148;16.932;2022-07-06T01:07:37;100376.66;;;16.04;100.00
45894;BME280;31603;51.148;16.932;2022-07-06T01:10:05;100350.88;;;15.80;100.00
45894;BME280;31603;51.148;16.932;2022-07-06T01:12:34;100386.16;;;15.61;100.00
45894;BME280;31603;51.148;16.932;2022-07-06T01:15:02;100382.81;;;14.87;100.00
45894;BME280;31603;51.148;16.932;2022-07-06T01:17:32;100337.38;;;14.77;100.00
45894;BME280;31603;51.148;16.932;2022-07-06T01:20:09;100384.06;;;15.45;100.00
45894;BME280;31603;51.148;16.932;2022-07-06T01:22:36;100399.06;;;15.68;100.00
45894;BME280;31603;51.148;16.932;2022-07-06T01:25:03;100388.31;;;15.59;100.00
45894;BME280;31603;51.148;16.932;2022-07-06T01:27:30;100361.88;;;15.33;100.00
45894;BME280;31603;51.148;16.932;2022-07-06T01:29:56;100365.38;;;15.40;100.00
45894;BME280;31603;51.148;16.932;2022-07-06T01:32:24;100389.13;;;15.36;100.00
45894;BME280;31603;51.148;16.932;2022-07-06T01:34:57;100342.34;;;14.86;100.00
45894;BME280;31603;51.148;16.932;2022-07-06T01:37:25;100389.59;;;15.33;100.00
45894;BME280;31603;51.148;16.932;2022-07-06T01:39:51;100382.44;;;15.68;100.00
45894;BME280;31603;51.148;16.932;2022-07-06T01:42:18;100367.06;;;15.41;100.00
45894;BME280;31603;51.148;16.932;2022-07-06T01:44:44;100378.13;;;15.30;100.00
45894;BME280;31603;51.148;16.932;2022-07-06T01:47:11;100391.16;;;15.41;100.00
45894;BME280;31603;51.148;16.932;2022-07-06T01:49:38;100335.56;;;15.12;100.00
45894;BME280;31603;51.148;16.932;2022-07-06T01:52:06;100390.69;;;15.32;100.00
45894;BME280;31603;51.148;16.932;2022-07-06T01:54:33;100374.53;;;15.41;100.00
45894;BME280;31603;51.148;16.932;2022-07-06T01:57:00;100389.53;;;15.75;100.00
45894;BME280;31603;51.148;16.932;2022-07-06T01:59:26;100378.59;;;15.80;100.00
45894;BME280;31603;51.148;16.932;2022-07-06T02:01:53;100389.69;;;15.69;100.00
45894;BME280;31603;51.148;16.932;2022-07-06T02:04:19;100393.56;;;15.91;100.00
45894;BME280;31603;51.148;16.932;2022-07-06T02:06:46;100399.69;;;16.05;100.00
45894;BME280;31603;51.148;16.932;2022-07-06T02:09:12;100396.28;;;16.26;100.00
45894;BME280;31603;51.148;16.932;2022-07-06T02:11:40;100397.28;;;16.20;100.00
45894;BME280;31603;51.148;16.932;2022-07-06T02:14:07;100364.22;;;16.59;100.00
45894;BME280;31603;51.148;16.932;2022-07-06T02:16:33;100369.84;;;16.88;100.00
45894;BME280;31603;51.148;16.932;2022-07-06T02:19:00;100370.88;;;16.58;100.00
45894;BME280;31603;51.148;16.932;2022-07-06T02:21:26;100377.13;;;17.05;100.00
45894;BME280;31603;51.148;16.932;2022-07-06T02:23:57;100362.47;;;16.41;100.00
45894;BME280;31603;51.148;16.932;2022-07-06T02:26:23;100373.03;;;16.27;100.00
45894;BME280;31603;51.148;16.932;2022-07-06T02:28:51;100379.56;;;15.98;100.00
45894;BME280;31603;51.148;16.932;2022-07-06T02:31:17;100328.28;;;15.41;100.00
45894;BME280;31603;51.148;16.932;2022-07-06T02:33:44;100371.81;;;16.00;100.00
45894;BME280;31603;51.148;16.932;2022-07-06T02:36:11;100353.00;;;15.90;100.00
45894;BME280;31603;51.148;16.932;2022-07-06T02:38:37;100360.41;;;15.73;100.00
45894;BME280;31603;51.148;16.932;2022-07-06T02:41:04;100360.59;;;15.83;100.00
45894;BME280;31603;51.148;16.932;2022-07-06T02:43:30;100389.81;;;16.09;100.00
45894;BME280;31603;51.148;16.932;2022-07-06T02:45:58;100378.94;;;15.72;100.00
45894;BME280;31603;51.148;16.932;2022-07-06T02:48:24;100348.16;;;15.50;100.00
45894;BME280;31603;51.148;16.932;2022-07-06T02:50:55;100386.91;;;16.04;100.00
45894;BME280;31603;51.148;16.932;2022-07-06T02:53:23;100388.84;;;15.92;100.00
45894;BME280;31603;51.148;16.932;2022-07-06T02:55:50;100393.19;;;15.87;100.00
45894;BME280;31603;51.148;16.932;2022-07-06T02:58:16;100386.41;;;15.72;100.00
45894;BME280;31603;51.148;16.932;2022-07-06T03:00:43;100387.47;;;16.29;100.00
45894;BME280;31603;51.148;16.932;2022-07-06T03:03:11;100313.97;;;15.68;100.00
45894;BME280;31603;51.148;16.932;2022-07-06T03:05:39;100365.69;;;16.09;100.00
45894;BME280;31603;51.148;16.932;2022-07-06T03:08:05;100391.00;;;16.13;100.00
45894;BME280;31603;51.148;16.932;2022-07-06T03:10:31;100407.03;;;16.87;100.00
45894;BME280;31603;51.148;16.932;2022-07-06T03:12:58;100408.63;;;16.30;100.00
45894;BME280;31603;51.148;16.932;2022-07-06T03:15:26;100394.56;;;16.37;100.00
45894;BME280;31603;51.148;16.932;2022-07-06T03:17:53;100415.72;;;15.79;100.00
45894;BME280;31603;51.148;16.932;2022-07-06T03:20:21;100416.09;;;16.06;100.00
45894;BME280;31603;51.148;16.932;2022-07-06T03:22:47;100415.22;;;16.29;100.00
45894;BME280;31603;51.148;16.932;2022-07-06T03:25:14;100418.63;;;16.20;100.00
45894;BME280;31603;51.148;16.932;2022-07-06T03:27:40;100425.75;;;16.27;100.00
45894;BME280;31603;51.148;16.932;2022-07-06T03:30:09;100422.72;;;16.17;100.00
45894;BME280;31603;51.148;16.932;2022-07-06T03:32:36;100369.06;;;16.00;100.00
45894;BME280;31603;51.148;16.932;2022-07-06T03:35:03;100417.75;;;16.19;100.00
45894;BME280;31603;51.148;16.932;2022-07-06T03:37:33;100450.84;;;16.09;100.00
45894;BME280;31603;51.148;16.932;2022-07-06T03:40:01;100445.63;;;16.01;100.00
45894;BME280;31603;51.148;16.932;2022-07-06T03:42:27;100460.22;;;15.96;100.00
45894;BME280;31603;51.148;16.932;2022-07-06T03:44:54;100463.94;;;15.78;100.00
45894;BME280;31603;51.148;16.932;2022-07-06T03:47:20;100450.34;;;15.77;100.00
45894;BME280;31603;51.148;16.932;2022-07-06T03:49:49;100442.13;;;15.82;100.00
45894;BME280;31603;51.148;16.932;2022-07-06T03:52:15;100453.38;;;15.99;100.00
45894;BME280;31603;51.148;16.932;2022-07-06T03:54:43;100458.66;;;16.12;100.00
45894;BME280;31603;51.148;16.932;2022-07-06T03:57:10;100432.97;;;16.05;100.00
45894;BME280;31603;51.148;16.932;2022-07-06T03:59:38;100470.84;;;16.11;100.00
45894;BME280;31603;51.148;16.932;2022-07-06T04:02:05;100412.47;;;15.82;100.00
45894;BME280;31603;51.148;16.932;2022-07-06T04:04:31;100458.41;;;16.60;100.00
45894;BME280;31603;51.148;16.932;2022-07-06T04:06:58;100465.56;;;16.21;100.00
45894;BME280;31603;51.148;16.932;2022-07-06T04:09:24;100456.97;;;16.11;100.00
45894;BME280;31603;51.148;16.932;2022-07-06T04:11:52;100474.97;;;16.20;100.00
45894;BME280;31603;51.148;16.932;2022-07-06T04:14:19;100364.84;;;15.20;100.00
45894;BME280;31603;51.148;16.932;2022-07-06T04:16:47;100452.84;;;15.78;100.00
45894;BME280;31603;51.148;16.932;2022-07-06T04:19:14;100464.31;;;15.70;100.00
45894;BME280;31603;51.148;16.932;2022-07-06T04:21:40;100494.00;;;15.51;100.00
45894;BME280;31603;51.148;16.932;2022-07-06T04:24:07;100484.28;;;15.30;100.00
45894;BME280;31603;51.148;16.932;2022-07-06T04:26:33;100505.47;;;15.55;100.00
45894;BME280;31603;51.148;16.932;2022-07-06T04:29:01;100519.63;;;15.16;100.00
45894;BME280;31603;51.148;16.932;2022-07-06T04:31:28;100457.06;;;14.79;100.00
45894;BME280;31603;51.148;16.932;2022-07-06T04:33:55;100485.72;;;14.84;100.00
45894;BME280;31603;51.148;16.932;2022-07-06T04:36:21;100518.78;;;15.16;100.00
45894;BME280;31603;51.148;16.932;2022-07-06T04:38:48;100527.25;;;15.03;100.00
45894;BME280;31603;51.148;16.932;2022-07-06T04:41:14;100531.03;;;14.90;100.00
45894;BME280;31603;51.148;16.932;2022-07-06T04:43:41;100546.72;;;15.14;100.00
45894;BME280;31603;51.148;16.932;2022-07-06T04:46:10;100545.69;;;15.27;100.00
45894;BME280;31603;51.148;16.932;2022-07-06T04:48:37;100538.25;;;14.91;100.00
45894;BME280;31603;51.148;16.932;2022-07-06T04:51:04;100548.78;;;15.19;100.00
45894;BME280;31603;51.148;16.932;2022-07-06T04:53:31;100540.44;;;14.89;100.00
45894;BME280;31603;51.148;16.932;2022-07-06T04:55:59;100547.28;;;14.86;100.00
45894;BME280;31603;51.148;16.932;2022-07-06T04:58:25;100545.09;;;15.07;100.00
45894;BME280;31603;51.148;16.932;2022-07-06T05:00:52;100549.72;;;14.95;100.00
45894;BME280;31603;51.148;16.932;2022-07-06T05:03:20;100520.78;;;15.09;100.00
45894;BME280;31603;51.148;16.932;2022-07-06T05:05:47;100472.06;;;14.71;100.00
45894;BME280;31603;51.148;16.932;2022-07-06T05:08:13;100529.25;;;14.96;100.00
45894;BME280;31603;51.148;16.932;2022-07-06T05:10:40;100518.78;;;15.16;100.00
45894;BME280;31603;51.148;16.932;2022-07-06T05:13:06;100520.13;;;15.44;100.00
45894;BME280;31603;51.148;16.932;2022-07-06T05:15:33;100526.06;;;15.59;100.00
45894;BME280;31603;51.148;16.932;2022-07-06T05:17:59;100513.31;;;15.09;100.00
45894;BME280;31603;51.148;16.932;2022-07-06T05:20:29;100440.53;;;14.54;100.00
45894;BME280;31603;51.148;16.932;2022-07-06T05:22:59;100504.78;;;15.11;100.00
45894;BME280;31603;51.148;16.932;2022-07-06T05:25:26;100488.31;;;15.16;100.00
45894;BME280;31603;51.148;16.932;2022-07-06T05:27:53;100517.09;;;15.45;100.00
45894;BME280;31603;51.148;16.932;2022-07-06T05:30:20;100522.66;;;15.75;100.00
45894;BME280;31603;51.148;16.932;2022-07-06T05:32:46;100513.94;;;16.02;100.00
45894;BME280;31603;51.148;16.932;2022-07-06T05:35:17;100477.88;;;16.02;100.00
45894;BME280;31603;51.148;16.932;2022-07-06T05:38:02;100393.78;;;15.24;100.00
45894;BME280;31603;51.148;16.932;2022-07-06T05:40:33;100504.25;;;15.93;100.00
45894;BME280;31603;51.148;16.932;2022-07-06T05:43:00;100522.34;;;15.83;100.00
45894;BME280;31603;51.148;16.932;2022-07-06T05:45:26;100512.84;;;16.03;100.00
45894;BME280;31603;51.148;16.932;2022-07-06T05:48:05;100482.69;;;15.95;100.00
45894;BME280;31603;51.148;16.932;2022-07-06T05:50:49;100496.34;;;16.31;100.00
45894;BME280;31603;51.148;16.932;2022-07-06T05:53:24;100488.34;;;16.11;100.00
45894;BME280;31603;51.148;16.932;2022-07-06T05:56:01;100482.56;;;16.13;100.00
45894;BME280;31603;51.148;16.932;2022-07-06T05:58:28;100464.47;;;16.22;100.00
45894;BME280;31603;51.148;16.932;2022-07-06T06:00:55;100436.06;;;16.79;100.00
45894;BME280;31603;51.148;16.932;2022-07-06T06:03:22;100456.69;;;16.83;100.00
45894;BME280;31603;51.148;16.932;2022-07-06T06:06:00;100461.28;;;16.89;100.00
45894;BME280;31603;51.148;16.932;2022-07-06T06:08:28;100462.03;;;17.13;100.00
45894;BME280;31603;51.148;16.932;2022-07-06T06:10:55;100476.38;;;17.22;100.00
45894;BME280;31603;51.148;16.932;2022-07-06T06:13:21;100490.63;;;17.25;100.00
45894;BME280;31603;51.148;16.932;2022-07-06T06:15:48;100541.34;;;16.80;100.00
45894;BME280;31603;51.148;16.932;2022-07-06T06:18:14;100521.44;;;16.60;100.00
45894;BME280;31603;51.148;16.932;2022-07-06T06:20:42;100539.78;;;16.96;100.00
45894;BME280;31603;51.148;16.932;2022-07-06T06:23:09;100544.69;;;17.06;100.00
45894;BME280;31603;51.148;16.932;2022-07-06T06:25:49;100531.13;;;17.21;100.00
45894;BME280;31603;51.148;16.932;2022-07-06T06:28:16;100542.59;;;17.53;100.00
45894;BME280;31603;51.148;16.932;2022-07-06T06:30:42;100539.91;;;17.30;100.00
45894;BME280;31603;51.148;16.932;2022-07-06T06:33:10;100542.75;;;17.18;100.00
45894;BME280;31603;51.148;16.932;2022-07-06T06:35:41;100541.47;;;17.38;100.00
45894;BME280;31603;51.148;16.932;2022-07-06T06:38:10;100539.38;;;17.73;100.00
45894;BME280;31603;51.148;16.932;2022-07-06T06:40:38;100520.19;;;17.31;100.00
45894;BME280;31603;51.148;16.932;2022-07-06T06:43:07;100501.78;;;17.14;100.00
45894;BME280;31603;51.148;16.932;2022-07-06T06:45:34;100546.75;;;17.51;100.00
45894;BME280;31603;51.148;16.932;2022-07-06T06:48:01;100548.00;;;17.60;100.00
45894;BME280;31603;51.148;16.932;2022-07-06T06:50:28;100465.41;;;16.51;100.00
45894;BME280;31603;51.148;16.932;2022-07-06T06:52:55;100546.25;;;17.54;100.00
45894;BME280;31603;51.148;16.932;2022-07-06T06:55:21;100537.44;;;18.36;100.00
45894;BME280;31603;51.148;16.932;2022-07-06T06:57:49;100540.44;;;18.68;100.00
45894;BME280;31603;51.148;16.932;2022-07-06T07:00:16;100534.25;;;18.66;100.00
45894;BME280;31603;51.148;16.932;2022-07-06T07:02:44;100532.41;;;18.89;100.00
45894;BME280;31603;51.148;16.932;2022-07-06T07:05:11;100540.16;;;18.87;100.00
45894;BME280;31603;51.148;16.932;2022-07-06T07:07:37;100528.97;;;19.26;100.00
45894;BME280;31603;51.148;16.932;2022-07-06T07:10:05;100497.34;;;19.64;100.00
45894;BME280;31603;51.148;16.932;2022-07-06T07:12:31;100541.31;;;19.79;100.00
45894;BME280;31603;51.148;16.932;2022-07-06T07:15:00;100486.03;;;19.76;100.00
45894;BME280;31603;51.148;16.932;2022-07-06T07:17:27;100515.75;;;19.16;100.00
45894;BME280;31603;51.148;16.932;2022-07-06T07:19:55;100543.44;;;19.93;100.00
45894;BME280;31603;51.148;16.932;2022-07-06T07:22:24;100541.09;;;19.36;100.00
45894;BME280;31603;51.148;16.932;2022-07-06T07:24:51;100547.59;;;19.91;100.00
45894;BME280;31603;51.148;16.932;2022-07-06T07:27:17;100532.00;;;19.46;100.00
45894;BME280;31603;51.148;16.932;2022-07-06T07:29:44;100520.50;;;19.64;100.00
45894;BME280;31603;51.148;16.932;2022-07-06T07:32:12;100542.66;;;20.03;100.00
45894;BME280;31603;51.148;16.932;2022-07-06T07:34:38;100524.00;;;19.77;100.00
45894;BME280;31603;51.148;16.932;2022-07-06T07:37:27;100522.25;;;19.48;100.00
45894;BME280;31603;51.148;16.932;2022-07-06T07:40:05;100531.53;;;19.76;100.00
45894;BME280;31603;51.148;16.932;2022-07-06T07:42:32;100536.03;;;20.09;100.00
45894;BME280;31603;51.148;16.932;2022-07-06T07:44:58;100517.09;;;20.16;100.00
45894;BME280;31603;51.148;16.932;2022-07-06T07:47:26;100538.69;;;19.94;100.00
45894;BME280;31603;51.148;16.932;2022-07-06T07:49:53;100520.09;;;20.42;100.00
45894;BME280;31603;51.148;16.932;2022-07-06T07:52:19;100517.50;;;20.67;100.00
45894;BME280;31603;51.148;16.932;2022-07-06T07:54:46;100516.09;;;21.18;100.00
45894;BME280;31603;51.148;16.932;2022-07-06T07:57:12;100524.97;;;20.99;100.00
45894;BME280;31603;51.148;16.932;2022-07-06T07:59:39;100530.28;;;21.74;100.00
45894;BME280;31603;51.148;16.932;2022-07-06T08:02:07;100515.19;;;21.85;100.00
45894;BME280;31603;51.148;16.932;2022-07-06T08:04:35;100533.63;;;21.71;100.00
45894;BME280;31603;51.148;16.932;2022-07-06T08:07:03;100534.38;;;21.35;100.00
45894;BME280;31603;51.148;16.932;2022-07-06T08:09:30;100528.00;;;21.55;100.00
45894;BME280;31603;51.148;16.932;2022-07-06T08:12:01;100501.78;;;21.97;100.00
45894;BME280;31603;51.148;16.932;2022-07-06T08:14:28;100535.44;;;22.23;100.00
45894;BME280;31603;51.148;16.932;2022-07-06T08:16:55;100528.13;;;22.17;100.00
45894;BME280;31603;51.148;16.932;2022-07-06T08:19:21;100518.44;;;21.36;100.00
45894;BME280;31603;51.148;16.932;2022-07-06T08:21:49;100531.50;;;22.19;100.00
45894;BME280;31603;51.148;16.932;2022-07-06T08:24:15;100494.28;;;21.20;100.00
45894;BME280;31603;51.148;16.932;2022-07-06T08:26:43;100538.75;;;22.09;100.00
45894;BME280;31603;51.148;16.932;2022-07-06T08:29:09;100542.13;;;22.52;100.00
45894;BME280;31603;51.148;16.932;2022-07-06T08:31:36;100539.06;;;22.28;100.00
45894;BME280;31603;51.148;16.932;2022-07-06T08:34:04;100530.38;;;22.30;100.00
45894;BME280;31603;51.148;16.932;2022-07-06T08:36:32;100530.91;;;22.11;100.00
45894;BME280;31603;51.148;16.932;2022-07-06T08:39:06;100497.84;;;22.29;100.00
45894;BME280;31603;51.148;16.932;2022-07-06T08:41:35;100547.94;;;23.07;100.00
45894;BME280;31603;51.148;16.932;2022-07-06T08:44:02;100532.81;;;22.88;100.00
45894;BME280;31603;51.148;16.932;2022-07-06T08:46:29;100528.59;;;22.90;100.00
45894;BME280;31603;51.148;16.932;2022-07-06T08:48:56;100499.81;;;22.13;100.00
45894;BME280;31603;51.148;16.932;2022-07-06T08:51:27;100537.09;;;23.45;100.00
45894;BME280;31603;51.148;16.932;2022-07-06T08:53:55;100527.69;;;23.15;100.00
45894;BME280;31603;51.148;16.932;2022-07-06T08:56:24;100527.72;;;23.75;100.00
45894;BME280;31603;51.148;16.932;2022-07-06T08:58:53;100526.38;;;23.02;100.00
45894;BME280;31603;51.148;16.932;2022-07-06T09:01:22;100525.75;;;23.11;100.00
45894;BME280;31603;51.148;16.932;2022-07-06T09:03:50;100528.53;;;23.81;100.00
45894;BME280;31603;51.148;16.932;2022-07-06T09:06:23;100530.75;;;24.23;100.00
45894;BME280;31603;51.148;16.932;2022-07-06T09:08:57;100519.78;;;23.87;94.45
45894;BME280;31603;51.148;16.932;2022-07-06T09:11:35;100444.94;;;23.62;97.35
45894;BME280;31603;51.148;16.932;2022-07-06T09:14:03;100513.19;;;24.94;86.14
45894;BME280;31603;51.148;16.932;2022-07-06T09:16:41;100462.34;;;24.62;82.14
45894;BME280;31603;51.148;16.932;2022-07-06T09:19:08;100517.00;;;24.80;82.38
45894;BME280;31603;51.148;16.932;2022-07-06T09:21:36;100518.91;;;24.60;86.82
45894;BME280;31603;51.148;16.932;2022-07-06T09:24:07;100518.97;;;24.79;82.63
45894;BME280;31603;51.148;16.932;2022-07-06T09:26:35;100495.66;;;24.49;76.96
45894;BME280;31603;51.148;16.932;2022-07-06T09:29:05;100512.69;;;24.87;72.67
45894;BME280;31603;51.148;16.932;2022-07-06T09:31:35;100464.72;;;23.86;75.43
45894;BME280;31603;51.148;16.932;2022-07-06T09:34:04;100500.19;;;24.74;78.07
45894;BME280;31603;51.148;16.932;2022-07-06T09:36:39;100516.00;;;25.42;72.54
45894;BME280;31603;51.148;16.932;2022-07-06T09:39:18;100507.91;;;25.98;68.79
45894;BME280;31603;51.148;16.932;2022-07-06T09:41:47;100490.91;;;24.16;79.03
45894;BME280;31603;51.148;16.932;2022-07-06T09:44:20;100448.03;;;24.58;73.15
45894;BME280;31603;51.148;16.932;2022-07-06T09:46:47;100489.69;;;24.22;84.84
45894;BME280;31603;51.148;16.932;2022-07-06T09:49:17;100501.19;;;25.75;67.65
45894;BME280;31603;51.148;16.932;2022-07-06T09:51:44;100514.38;;;25.98;60.79
45894;BME280;31603;51.148;16.932;2022-07-06T09:54:10;100471.06;;;25.13;60.14
45894;BME280;31603;51.148;16.932;2022-07-06T09:56:37;100501.22;;;25.08;62.75
45894;BME280;31603;51.148;16.932;2022-07-06T09:59:14;100484.41;;;24.49;58.98
45894;BME280;31603;51.148;16.932;2022-07-06T10:01:44;100485.41;;;25.55;52.89
45894;BME280;31603;51.148;16.932;2022-07-06T10:04:13;100471.16;;;26.03;53.31
45894;BME280;31603;51.148;16.932;2022-07-06T10:06:41;100487.41;;;25.54;51.49
45894;BME280;31603;51.148;16.932;2022-07-06T10:09:10;100491.59;;;25.57;51.20
45894;BME280;31603;51.148;16.932;2022-07-06T10:11:38;100490.13;;;25.59;52.26
45894;BME280;31603;51.148;16.932;2022-07-06T10:14:06;100490.22;;;26.11;50.51
45894;BME280;31603;51.148;16.932;2022-07-06T10:16:36;100492.09;;;24.44;53.01
45894;BME280;31603;51.148;16.932;2022-07-06T10:19:05;100484.81;;;25.96;49.69
45894;BME280;31603;51.148;16.932;2022-07-06T10:21:34;100508.16;;;26.94;43.82
45894;BME280;31603;51.148;16.932;2022-07-06T10:24:02;100478.31;;;27.21;43.82
45894;BME280;31603;51.148;16.932;2022-07-06T10:26:29;100480.50;;;26.17;41.56
45894;BME280;31603;51.148;16.932;2022-07-06T10:28:58;100498.03;;;27.07;42.26
45894;BME280;31603;51.148;16.932;2022-07-06T10:31:25;100457.94;;;25.65;44.67
45894;BME280;31603;51.148;16.932;2022-07-06T10:33:55;100497.00;;;25.72;46.81
45894;BME280;31603;51.148;16.932;2022-07-06T10:36:22;100476.97;;;26.11;46.06
45894;BME280;31603;51.148;16.932;2022-07-06T10:38:50;100470.47;;;26.44;45.98
45894;BME280;31603;51.148;16.932;2022-07-06T10:41:17;100482.22;;;25.61;46.18
45894;BME280;31603;51.148;16.932;2022-07-06T10:43:45;100486.41;;;26.67;43.92
45894;BME280;31603;51.148;16.932;2022-07-06T10:46:14;100480.25;;;26.79;42.70
45894;BME280;31603;51.148;16.932;2022-07-06T10:48:47;100474.94;;;27.32;40.71
45894;BME280;31603;51.148;16.932;2022-07-06T10:51:24;100495.00;;;26.10;41.75
45894;BME280;31603;51.148;16.932;2022-07-06T10:53:55;100493.44;;;25.00;43.34
45894;BME280;31603;51.148;16.932;2022-07-06T10:56:31;100499.41;;;24.93;43.99
45894;BME280;31603;51.148;16.932;2022-07-06T10:59:02;100501.34;;;25.45;43.42
45894;BME280;31603;51.148;16.932;2022-07-06T11:01:34;100472.38;;;24.10;45.36
45894;BME280;31603;51.148;16.932;2022-07-06T11:04:05;100495.69;;;23.76;48.09
45894;BME280;31603;51.148;16.932;2022-07-06T11:06:37;100485.91;;;24.08;49.10
45894;BME280;31603;51.148;16.932;2022-07-06T11:09:05;100510.59;;;24.11;49.91
45894;BME280;31603;51.148;16.932;2022-07-06T11:11:39;100485.91;;;24.95;48.16
45894;BME280;31603;51.148;16.932;2022-07-06T11:14:08;100503.97;;;24.89;50.28
45894;BME280;31603;51.148;16.932;2022-07-06T11:16:37;100473.44;;;24.77;50.12
45894;BME280;31603;51.148;16.932;2022-07-06T11:19:06;100496.84;;;24.09;52.00
45894;BME280;31603;51.148;16.932;2022-07-06T11:21:38;100492.63;;;23.72;55.39
45894;BME280;31603;51.148;16.932;2022-07-06T11:24:06;100501.44;;;23.50;56.18
45894;BME280;31603;51.148;16.932;2022-07-06T11:26:34;100488.19;;;24.35;53.56
45894;BME280;31603;51.148;16.932;2022-07-06T11:29:03;100497.69;;;25.64;50.04
45894;BME280;31603;51.148;16.932;2022-07-06T11:31:30;100514.41;;;25.74;48.81
45894;BME280;31603;51.148;16.932;2022-07-06T11:33:56;100505.88;;;24.69;49.03
45894;BME280;31603;51.148;16.932;2022-07-06T11:36:23;100499.13;;;24.41;51.72
45894;BME280;31603;51.148;16.932;2022-07-06T11:38:53;100510.28;;;23.78;53.40
45894;BME280;31603;51.148;16.932;2022-07-06T11:41:21;100507.97;;;23.85;51.27
45894;BME280;31603;51.148;16.932;2022-07-06T11:43:48;100498.25;;;23.72;53.01
45894;BME280;31603;51.148;16.932;2022-07-06T11:46:26;100489.69;;;24.22;51.73
45894;BME280;31603;51.148;16.932;2022-07-06T11:48:54;100491.59;;;24.61;51.38
45894;BME280;31603;51.148;16.932;2022-07-06T11:51:23;100499.16;;;25.37;47.87
45894;BME280;31603;51.148;16.932;2022-07-06T11:53:54;100485.81;;;26.05;44.61
45894;BME280;31603;51.148;16.932;2022-07-06T11:56:23;100496.16;;;26.42;45.15
45894;BME280;31603;51.148;16.932;2022-07-06T11:58:53;100482.81;;;24.38;46.92
45894;BME280;31603;51.148;16.932;2022-07-06T12:01:21;100483.38;;;25.60;44.82
45894;BME280;31603;51.148;16.932;2022-07-06T12:03:47;100484.72;;;25.63;45.15
45894;BME280;31603;51.148;16.932;2022-07-06T12:06:16;100476.88;;;25.41;44.18
45894;BME280;31603;51.148;16.932;2022-07-06T12:08:44;100491.94;;;25.07;45.44
45894;BME280;31603;51.148;16.932;2022-07-06T12:11:16;100483.38;;;24.93;45.42
45894;BME280;31603;51.148;16.932;2022-07-06T12:13:43;100485.97;;;25.14;43.92
45894;BME280;31603;51.148;16.932;2022-07-06T12:16:13;100472.47;;;24.63;41.43
45894;BME280;31603;51.148;16.932;2022-07-06T12:18:41;100481.50;;;25.08;39.80
45894;BME280;31603;51.148;16.932;2022-07-06T12:21:08;100487.91;;;27.06;37.68
45894;BME280;31603;51.148;16.932;2022-07-06T12:23:43;100477.59;;;27.51;37.68
45894;BME280;31603;51.148;16.932;2022-07-06T12:26:10;100478.56;;;25.61;39.87
45894;BME280;31603;51.148;16.932;2022-07-06T12:28:38;100485.91;;;25.19;38.60
45894;BME280;31603;51.148;16.932;2022-07-06T12:31:04;100468.06;;;25.48;38.61
45894;BME280;31603;51.148;16.932;2022-07-06T12:33:31;100484.28;;;25.93;38.21
45894;BME280;31603;51.148;16.932;2022-07-06T12:36:08;100462.59;;;24.89;38.38
45894;BME280;31603;51.148;16.932;2022-07-06T12:38:35;100459.31;;;24.82;38.32